createdAt,value
2023-02-14T00:03:06.783Z,34.70
2023-02-14T00:08:06.912Z,40.10
2023-02-14T00:13:06.438Z,39.03
2023-02-14T00:18:06.563Z,39.70
2023-02-14T00:23:07.735Z,45.67
2023-02-14T00:28:06.953Z,29.80
2023-02-14T00:33:05.171Z,39.00
2023-02-14T00:38:04.039Z,41.07
2023-02-14T00:43:03.854Z,34.73
2023-02-14T00:48:02.304Z,28.87
2023-02-14T00:53:02.212Z,42.67
2023-02-14T00:58:00.766Z,40.90
2023-02-14T01:03:00.605Z,46.10
2023-02-14T01:07:59.527Z,50.07
2023-02-14T01:12:58.054Z,44.67
2023-02-14T01:17:56.176Z,40.90
2023-02-14T01:22:56.315Z,47.90
2023-02-14T01:27:55.095Z,49.43
2023-02-14T01:32:54.463Z,36.70
2023-02-14T01:37:54.003Z,46.43
2023-02-14T01:42:54.319Z,40.93
2023-02-14T01:47:59.004Z,42.10
2023-02-14T01:53:02.241Z,50.13
2023-02-14T01:58:06.417Z,46.30
2023-02-14T02:03:06.874Z,46.47
2023-02-14T02:08:05.798Z,44.90
2023-02-14T02:13:09.597Z,47.53
2023-02-14T02:18:16.074Z,45.53
2023-02-14T02:23:42.569Z,43.40
2023-02-14T02:29:19.832Z,36.93
2023-02-14T02:34:48.225Z,52.57
2023-02-14T02:40:09.253Z,47.77
2023-02-14T02:45:19.349Z,45.03
2023-02-14T02:50:44.139Z,33.87
2023-02-14T02:56:03.568Z,46.30
2023-02-14T03:01:10.968Z,38.20
2023-02-14T03:06:09.439Z,45.30
2023-02-14T03:11:15.923Z,44.07
2023-02-14T03:16:31.870Z,32.80
2023-02-14T03:21:37.193Z,35.83
2023-02-14T03:26:43.007Z,47.60
2023-02-14T03:31:52.350Z,31.50
2023-02-14T03:36:57.332Z,26.83
2023-02-14T03:42:06.058Z,45.03
2023-02-14T03:47:09.625Z,37.73
2023-02-14T03:52:09.651Z,37.77
2023-02-14T03:57:18.061Z,37.47
2023-02-14T04:02:19.611Z,38.70
2023-02-14T04:07:19.994Z,35.20
2023-02-14T04:12:32.264Z,42.43
2023-02-14T04:17:53.230Z,33.63
2023-02-14T04:22:52.646Z,41.77
2023-02-14T04:27:52.546Z,44.17
2023-02-14T04:32:51.129Z,39.57
2023-02-14T04:37:49.684Z,45.17
2023-02-14T04:42:48.687Z,37.87
2023-02-14T04:47:48.775Z,43.40
2023-02-14T04:52:47.253Z,41.93
2023-02-14T04:57:46.058Z,33.40
2023-02-14T05:02:44.536Z,34.90
2023-02-14T05:07:48.022Z,41.60
2023-02-14T05:12:46.499Z,41.17
2023-02-14T05:17:45.031Z,30.83
2023-02-14T05:22:44.840Z,42.10
2023-02-14T05:27:43.303Z,42.87
2023-02-14T05:32:41.766Z,43.90
2023-02-14T05:37:39.959Z,43.57
2023-02-14T05:42:40.021Z,38.83
2023-02-14T05:47:38.197Z,45.70
2023-02-14T05:52:36.835Z,44.70
2023-02-14T05:57:35.137Z,40.07
2023-02-14T06:02:35.017Z,41.07
2023-02-14T06:07:33.480Z,41.60
2023-02-14T06:12:31.954Z,34.20
2023-02-14T06:17:30.102Z,28.23
2023-02-14T06:22:30.732Z,41.23
2023-02-14T06:27:30.308Z,39.90
2023-02-14T06:32:29.016Z,40.27
2023-02-14T06:37:27.516Z,21.60
2023-02-14T06:42:27.509Z,33.43
2023-02-14T06:47:26.064Z,33.83
2023-02-14T06:52:24.534Z,33.10
2023-02-14T06:57:23.008Z,31.07
2023-02-14T07:02:25.072Z,32.93
2023-02-14T07:07:23.689Z,37.70
2023-02-14T07:12:22.190Z,30.67
2023-02-14T07:17:20.647Z,29.57
2023-02-14T07:22:20.464Z,34.20
2023-02-14T07:27:18.632Z,36.70
2023-02-14T07:32:17.294Z,25.47
2023-02-14T07:37:17.065Z,28.50
2023-02-14T07:42:16.622Z,28.20
2023-02-14T07:47:16.217Z,28.93
2023-02-14T07:52:14.377Z,24.33
2023-02-14T07:57:12.869Z,23.87
2023-02-14T08:02:14.409Z,25.70
2023-02-14T08:07:12.544Z,25.97
2023-02-14T08:12:29.233Z,26.50
2023-02-14T08:17:29.124Z,18.03
2023-02-14T08:22:28.179Z,23.97
2023-02-14T08:27:26.569Z,21.60
2023-02-14T08:32:24.818Z,22.90
2023-02-14T08:37:24.458Z,26.63
2023-02-14T08:42:23.428Z,28.00
2023-02-14T08:47:21.940Z,22.00
2023-02-14T08:52:20.503Z,17.57
2023-02-14T08:57:20.536Z,13.87
2023-02-14T09:02:19.049Z,18.67
2023-02-14T09:07:17.558Z,19.00
2023-02-14T09:12:16.195Z,19.40
2023-02-14T09:17:16.784Z,19.10
2023-02-14T09:22:15.881Z,17.40
2023-02-14T09:27:14.477Z,14.47
2023-02-14T09:32:13.018Z,17.30
2023-02-14T09:37:31.420Z,19.53
2023-02-14T09:42:42.151Z,20.27
2023-02-14T09:47:46.490Z,17.10
2023-02-14T09:52:48.280Z,14.47
2023-02-14T09:58:06.588Z,13.47
2023-02-14T10:03:33.798Z,14.50
2023-02-14T10:08:44.362Z,15.90
2023-02-14T10:13:46.395Z,18.63
2023-02-14T10:18:50.926Z,14.57
2023-02-14T10:23:54.922Z,10.87
2023-02-14T10:28:54.332Z,17.00
2023-02-14T10:33:57.713Z,14.50
2023-02-14T10:39:09.636Z,16.10
2023-02-14T10:44:22.452Z,18.57
2023-02-14T10:49:30.492Z,25.43
2023-02-14T10:54:38.937Z,21.10
2023-02-14T10:59:46.291Z,20.20
2023-02-14T11:04:48.022Z,16.83
2023-02-14T11:09:47.930Z,21.87
2023-02-14T11:14:46.831Z,17.47
2023-02-14T11:19:58.340Z,15.97
2023-02-14T11:25:05.331Z,16.40
2023-02-14T11:30:03.844Z,12.27
2023-02-14T11:35:05.289Z,11.83
2023-02-14T11:40:05.815Z,16.93
2023-02-14T11:45:06.301Z,21.63
2023-02-14T11:50:07.728Z,17.73
2023-02-14T11:55:08.391Z,18.73
2023-02-14T12:00:17.276Z,14.87
2023-02-14T12:05:21.254Z,18.60
2023-02-14T12:10:29.815Z,19.97
2023-02-14T12:15:38.187Z,18.83
2023-02-14T12:20:45.211Z,12.30
2023-02-14T12:25:51.419Z,17.37
2023-02-14T12:30:51.337Z,20.60
2023-02-14T12:36:01.651Z,15.70
2023-02-14T12:41:14.375Z,19.00
2023-02-14T12:46:25.755Z,16.50
2023-02-14T12:51:31.389Z,13.53
2023-02-14T12:56:42.429Z,17.23
2023-02-14T13:02:08.643Z,17.43
2023-02-14T13:07:13.075Z,18.90
2023-02-14T13:12:24.822Z,9.20
2023-02-14T13:17:35.140Z,15.97
2023-02-14T13:22:35.628Z,17.57
2023-02-14T13:27:40.663Z,14.23
2023-02-14T13:32:42.732Z,20.50
2023-02-14T13:37:41.329Z,14.73
2023-02-14T13:42:56.261Z,18.90
2023-02-14T13:48:05.386Z,10.47
2023-02-14T13:53:03.939Z,9.87
2023-02-14T13:58:06.076Z,13.20
2023-02-14T14:03:05.307Z,11.10
2023-02-14T14:08:36.910Z,12.90
2023-02-14T14:14:03.552Z,13.20
2023-02-14T14:19:05.117Z,11.60
2023-02-14T14:24:20.056Z,13.70
2023-02-14T14:29:24.498Z,13.43
2023-02-14T14:34:24.967Z,14.00
2023-02-14T14:39:28.992Z,12.93
2023-02-14T14:44:29.772Z,10.80
2023-02-14T14:49:28.384Z,13.23
2023-02-14T14:54:27.953Z,12.60
2023-02-14T14:59:35.623Z,14.60
2023-02-14T15:04:36.541Z,14.50
2023-02-14T15:09:34.747Z,16.00
2023-02-14T15:14:38.553Z,10.70
2023-02-14T15:19:42.064Z,16.20
2023-02-14T15:24:40.570Z,12.90
2023-02-14T15:29:40.470Z,10.93
2023-02-14T15:34:38.803Z,9.77
2023-02-14T15:39:40.082Z,18.60
2023-02-14T15:44:39.927Z,15.30
2023-02-14T15:49:41.849Z,9.80
2023-02-14T15:54:44.467Z,16.53
2023-02-14T15:59:44.616Z,10.20
2023-02-14T16:04:43.212Z,13.57
2023-02-14T16:09:41.743Z,13.57
2023-02-14T16:14:42.236Z,22.57
2023-02-14T16:19:43.798Z,13.03
2023-02-14T16:24:42.438Z,12.77
2023-02-14T16:29:41.864Z,9.20
2023-02-14T16:34:42.299Z,9.37
2023-02-14T16:39:40.901Z,11.20
2023-02-14T16:44:40.566Z,16.87
2023-02-14T16:49:39.093Z,7.37
2023-02-14T16:54:38.962Z,16.77
2023-02-14T16:59:37.538Z,8.63
2023-02-14T17:04:36.023Z,8.60
2023-02-14T17:09:38.326Z,16.90
2023-02-14T17:14:39.721Z,15.27
2023-02-14T17:19:38.072Z,16.20
2023-02-14T17:24:36.228Z,14.43
2023-02-14T17:29:34.848Z,14.53
2023-02-14T17:34:35.062Z,19.37
2023-02-14T17:39:33.738Z,12.87
2023-02-14T17:44:36.186Z,21.80
2023-02-14T17:49:36.080Z,16.70
2023-02-14T17:54:38.307Z,21.50
2023-02-14T17:59:37.366Z,37.00
2023-02-14T18:04:37.626Z,28.87
2023-02-14T18:09:35.795Z,18.43
2023-02-14T18:14:34.809Z,18.60
2023-02-14T18:26:29.564Z,24.93
2023-02-14T18:31:28.121Z,36.57
2023-02-14T18:36:26.452Z,18.60
2023-02-14T18:41:26.009Z,23.90
2023-02-14T18:46:27.536Z,23.03
2023-02-14T18:51:27.334Z,22.97
2023-02-14T18:56:29.239Z,28.83
2023-02-14T19:01:31.877Z,23.30
2023-02-14T19:06:32.366Z,37.57
2023-02-14T19:11:33.035Z,31.10
2023-02-14T19:16:36.377Z,25.17
2023-02-14T19:21:36.769Z,27.83
2023-02-14T19:26:37.986Z,34.77
2023-02-14T19:31:39.116Z,34.00
2023-02-14T19:36:37.910Z,34.90
2023-02-14T19:41:36.562Z,26.47
2023-02-14T19:46:35.295Z,31.93
2023-02-14T19:51:37.882Z,35.87
2023-02-14T19:56:38.559Z,35.07
2023-02-14T20:01:39.775Z,36.90
2023-02-14T20:06:39.886Z,37.10
2023-02-14T20:11:41.789Z,34.73
2023-02-14T20:16:40.581Z,39.63
2023-02-14T20:21:42.184Z,42.43
2023-02-14T20:26:41.991Z,59.03
2023-02-14T20:31:42.919Z,57.40
2023-02-14T20:36:43.607Z,69.43
2023-02-14T20:41:43.694Z,46.47
2023-02-14T20:46:42.336Z,39.73
2023-02-14T20:51:42.404Z,50.53
2023-02-14T20:56:40.931Z,58.47
2023-02-14T21:01:39.730Z,40.80
2023-02-14T21:06:40.050Z,59.20
2023-02-14T21:11:40.121Z,45.37
2023-02-14T21:16:38.310Z,46.67
2023-02-14T21:21:38.421Z,55.20
2023-02-14T21:26:37.079Z,72.17
2023-02-14T21:31:38.372Z,48.97
2023-02-14T21:36:37.688Z,41.33
2023-02-14T21:41:37.282Z,41.50
2023-02-14T21:46:41.333Z,39.87
2023-02-14T21:51:40.427Z,43.53
2023-02-14T21:56:39.640Z,53.87
2023-02-14T22:01:41.880Z,70.20
2023-02-14T22:06:42.347Z,50.63
2023-02-14T22:11:41.080Z,50.73
2023-02-14T22:16:41.304Z,67.67
2023-02-14T22:21:39.787Z,47.17
2023-02-14T22:26:41.168Z,46.20
2023-02-14T22:31:43.848Z,57.93
2023-02-14T22:36:42.352Z,40.17
2023-02-14T22:41:40.836Z,45.17
2023-02-14T22:46:40.818Z,37.23
2023-02-14T22:51:40.995Z,55.83
2023-02-14T22:56:41.904Z,45.40
2023-02-14T23:01:41.866Z,35.17
2023-02-14T23:06:40.597Z,41.07
2023-02-14T23:11:41.748Z,37.20
2023-02-14T23:16:59.605Z,54.83
2023-02-14T23:21:58.930Z,48.10
2023-02-14T23:26:57.170Z,67.70
2023-02-14T23:31:57.683Z,41.33
2023-02-14T23:36:56.426Z,29.47
2023-02-14T23:41:55.558Z,52.90
2023-02-14T23:46:58.364Z,70.77
2023-02-14T23:51:57.275Z,63.03
2023-02-14T23:56:57.428Z,58.13
